^^
Datos históricos de la estación: Murcia-Puente Tocinos
Diario Informe para Noviembre 17, 2019 Unidades:  Ambas    Ingés   Métrico
Diario Semanal Mensual Anual
  Máxima: Mínima: Promedio:
Temperatura: 64 °F /  17.8 °C 43.9 °F /  6.6 °C 53.2 °F /  11.8 °C
Punto de rocio: 43.2 °F /  6.2 °C 29.3 °F /  -1.5 °C 34.5 °F /  1.4 °C
Humedad: 69.4% 34% 50%
Velocidad viento: 8.1mph /  13km/h - 3.7mph /  6km/h
Racha viento: 14mph /  22.5km/h - -
Viento- - SO
Presión: 30 in /  1015.6 hPa 29.8 in /  1008.3 hPa -
Precipitación: 0 in /  0.0 mm    
 
 
Tabla de datos para Noviembre 17, 2019
Hora Temperatura Punto de rocio Presión Viento Velocidad viento Racha viento Humedad Intensidad lluvia(por hora) Nubes
00:04 52.9 °F /  11.6 °C 29.5 °F /  -1.4 °C 30in /  1015.0hPa OSO 8.1mph /  13km/h 13mph /  20.9km/h 40.4% 0in /  0.0mm
00:09 52.7 °F /  11.5 °C 29.7 °F /  -1.3 °C 30in /  1015.0hPa OSO 8.1mph /  13km/h 13mph /  20.9km/h 41% 0in /  0.0mm
00:14 52.5 °F /  11.4 °C 29.5 °F /  -1.4 °C 30in /  1015.0hPa OSO 7.8mph /  12.5km/h 12mph /  19.3km/h 41% 0in /  0.0mm
00:19 52.3 °F /  11.3 °C 29.8 °F /  -1.2 °C 30in /  1015.0hPa Oeste 7.6mph /  12.2km/h 10.4mph /  16.7km/h 41.9% 0in /  0.0mm
00:24 52 °F /  11.1 °C 29.7 °F /  -1.3 °C 30in /  1015.0hPa Oeste 6.8mph /  11km/h 10mph /  16.1km/h 42% 0in /  0.0mm
00:29 51.8 °F /  11 °C 29.7 °F /  -1.3 °C 30in /  1014.9hPa SO 6.4mph /  10.3km/h 9mph /  14.5km/h 42.3% 0in /  0.0mm
00:34 51.6 °F /  10.9 °C 29.5 °F /  -1.4 °C 30in /  1014.9hPa SSO 5.3mph /  8.5km/h 8mph /  12.9km/h 42.4% 0in /  0.0mm
00:39 51.6 °F /  10.9 °C 29.3 °F /  -1.5 °C 30in /  1015.0hPa SSO 4.7mph /  7.6km/h 6mph /  9.7km/h 42% 0in /  0.0mm
00:44 51.8 °F /  11 °C 29.7 °F /  -1.3 °C 30in /  1015.0hPa SSE 4mph /  6.4km/h 6mph /  9.7km/h 42.7% 0in /  0.0mm
00:49 51.4 °F /  10.8 °C 29.8 °F /  -1.2 °C 30in /  1015.0hPa SE 3.6mph /  5.8km/h 6mph /  9.7km/h 43.5% 0in /  0.0mm
00:54 50.7 °F /  10.4 °C 30 °F /  -1.1 °C 30in /  1015.0hPa SE 3.2mph /  5.1km/h 5mph /  8km/h 44.6% 0in /  0.0mm
00:59 50.4 °F /  10.2 °C 30 °F /  -1.1 °C 30in /  1015.0hPa Sur 2.9mph /  4.7km/h 7.4mph /  11.9km/h 45.2% 0in /  0.0mm
01:04 50.4 °F /  10.2 °C 29.8 °F /  -1.2 °C 30in /  1015.0hPa SO 3.4mph /  5.4km/h 8.5mph /  13.7km/h 45% 0in /  0.0mm
01:09 50.5 °F /  10.3 °C 29.8 °F /  -1.2 °C 30in /  1015.1hPa SO 3.6mph /  5.8km/h 10.4mph /  16.7km/h 44.8% 0in /  0.0mm
01:14 50.7 °F /  10.4 °C 29.7 °F /  -1.3 °C 30in /  1015.1hPa SO 5.1mph /  8.2km/h 10mph /  16.1km/h 44% 0in /  0.0mm
01:19 50.7 °F /  10.4 °C 29.7 °F /  -1.3 °C 30in /  1015.1hPa OSO 5.9mph /  9.5km/h 9.2mph /  14.8km/h 44% 0in /  0.0mm
01:24 50.7 °F /  10.4 °C 29.7 °F /  -1.3 °C 30in /  1015.1hPa OSO 6.1mph /  9.8km/h 9.2mph /  14.8km/h 44.1% 0in /  0.0mm
01:29 50.5 °F /  10.3 °C 30 °F /  -1.1 °C 30in /  1015.1hPa SO 6.2mph /  10km/h 9mph /  14.5km/h 45% 0in /  0.0mm
01:34 50.4 °F /  10.2 °C 29.8 °F /  -1.2 °C 30in /  1015.1hPa SO 5.2mph /  8.4km/h 8.1mph /  13km/h 45% 0in /  0.0mm
01:39 50.4 °F /  10.2 °C 29.8 °F /  -1.2 °C 30in /  1015.1hPa SO 4.7mph /  7.6km/h 8mph /  12.9km/h 45% 0in /  0.0mm
01:44 50.4 °F /  10.2 °C 30 °F /  -1.1 °C 30in /  1015.0hPa Sur 4.2mph /  6.8km/h 6.9mph /  11.1km/h 45.6% 0in /  0.0mm
01:49 49.6 °F /  9.8 °C 30 °F /  -1.1 °C 30in /  1015.0hPa Sur 4mph /  6.5km/h 7mph /  11.3km/h 46.6% 0in /  0.0mm
01:54 48.9 °F /  9.4 °C 30 °F /  -1.1 °C 30in /  1015.2hPa Sur 4mph /  6.5km/h 6.9mph /  11.1km/h 47.8% 0in /  0.0mm
01:59 48.6 °F /  9.2 °C 30.2 °F /  -1 °C 30in /  1015.2hPa SSO 4mph /  6.5km/h 7mph /  11.3km/h 48.9% 0in /  0.0mm
02:04 48.4 °F /  9.1 °C 30.2 °F /  -1 °C 30in /  1015.2hPa SO 3.4mph /  5.5km/h 6mph /  9.7km/h 49.1% 0in /  0.0mm
02:09 48.4 °F /  9.1 °C 30.2 °F /  -1 °C 30in /  1015.2hPa OSO 3.1mph /  5km/h 5.2mph /  8.4km/h 49.1% 0in /  0.0mm
02:14 48.6 °F /  9.2 °C 30.2 °F /  -1 °C 30in /  1015.2hPa OSO 3mph /  4.8km/h 5.8mph /  9.3km/h 49% 0in /  0.0mm
02:19 48.7 °F /  9.3 °C 30.4 °F /  -0.9 °C 30in /  1015.2hPa Oeste 2.9mph /  4.7km/h 6.9mph /  11.1km/h 48.9% 0in /  0.0mm
02:24 48.7 °F /  9.3 °C 30.2 °F /  -1 °C 30in /  1015.2hPa OSO 3.6mph /  5.8km/h 7mph /  11.3km/h 48.7% 0in /  0.0mm
02:29 48.7 °F /  9.3 °C 30 °F /  -1.1 °C 30in /  1015.1hPa SO 4mph /  6.5km/h 7mph /  11.3km/h 48.4% 0in /  0.0mm
02:34 48.6 °F /  9.2 °C 30 °F /  -1.1 °C 30in /  1015.1hPa SO 4mph /  6.5km/h 7.6mph /  12.2km/h 48.8% 0in /  0.0mm
02:39 48.6 °F /  9.2 °C 30.2 °F /  -1 °C 30in /  1015.1hPa Sur 4mph /  6.5km/h 8mph /  12.9km/h 49.3% 0in /  0.0mm
02:44 47.8 °F /  8.8 °C 30.4 °F /  -0.9 °C 30in /  1015.0hPa SSE 4.2mph /  6.8km/h 7mph /  11.3km/h 50.5% 0in /  0.0mm
02:49 47.3 °F /  8.5 °C 30.4 °F /  -0.9 °C 30in /  1015.0hPa Sur 4.3mph /  6.9km/h 8.1mph /  13km/h 51.5% 0in /  0.0mm
02:54 46.9 °F /  8.3 °C 30.2 °F /  -1 °C 30in /  1015.1hPa Sur 4.1mph /  6.6km/h 8mph /  12.9km/h 52% 0in /  0.0mm
02:59 46.9 °F /  8.3 °C 30.4 °F /  -0.9 °C 30in /  1015.1hPa Sur 4mph /  6.5km/h 5mph /  8km/h 52.2% 0in /  0.0mm
03:04 46.9 °F /  8.3 °C 30.2 °F /  -1 °C 30in /  1015.1hPa Sur 3.4mph /  5.5km/h 5.8mph /  9.3km/h 52% 0in /  0.0mm
03:09 47.1 °F /  8.4 °C 30.4 °F /  -0.9 °C 30in /  1015.1hPa OSO 3.1mph /  5km/h 6mph /  9.7km/h 52% 0in /  0.0mm
03:14 47.1 °F /  8.4 °C 30.4 °F /  -0.9 °C 30in /  1015.1hPa ONO 2.7mph /  4.3km/h 4mph /  6.4km/h 51.9% 0in /  0.0mm
03:19 47.3 °F /  8.5 °C 30.4 °F /  -0.9 °C 30in /  1015.1hPa OSO 2.4mph /  3.9km/h 4mph /  6.4km/h 51.7% 0in /  0.0mm
03:24 47.5 °F /  8.6 °C 30.7 °F /  -0.7 °C 30in /  1015.1hPa OSO 2.4mph /  3.9km/h 4mph /  6.4km/h 52% 0in /  0.0mm
03:29 47.5 °F /  8.6 °C 30.7 °F /  -0.7 °C 30in /  1015.1hPa OSO 2.4mph /  3.9km/h 4.6mph /  7.4km/h 52% 0in /  0.0mm
03:34 47.7 °F /  8.7 °C 30.9 °F /  -0.6 °C 30in /  1015.1hPa OSO 2.4mph /  3.9km/h 5mph /  8km/h 52.1% 0in /  0.0mm
03:39 47.5 °F /  8.6 °C 30.9 °F /  -0.6 °C 30in /  1015.1hPa OSO 2.4mph /  3.9km/h 5mph /  8km/h 52.3% 0in /  0.0mm
03:44 47.3 °F /  8.5 °C 30.6 °F /  -0.8 °C 30in /  1015.1hPa OSO 2.7mph /  4.4km/h 5mph /  8km/h 52% 0in /  0.0mm
03:49 47.1 °F /  8.4 °C 30.4 °F /  -0.9 °C 30in /  1015.1hPa OSO 2.9mph /  4.7km/h 5mph /  8km/h 52% 0in /  0.0mm
03:54 47.3 °F /  8.5 °C 30.4 °F /  -0.9 °C 30in /  1015.1hPa OSO 2.9mph /  4.7km/h 5mph /  8km/h 51.9% 0in /  0.0mm
03:59 47.5 °F /  8.6 °C 30.4 °F /  -0.9 °C 30in /  1014.8hPa SO 2.9mph /  4.7km/h 5mph /  8km/h 51.3% 0in /  0.0mm
04:04 47.8 °F /  8.8 °C 30.2 °F /  -1 °C 30in /  1014.8hPa Sur 2.5mph /  4.1km/h 5mph /  8km/h 50.2% 0in /  0.0mm
04:09 48.2 °F /  9 °C 30 °F /  -1.1 °C 30in /  1014.8hPa Sur 2.4mph /  3.9km/h 5mph /  8km/h 49.3% 0in /  0.0mm
04:14 48.6 °F /  9.2 °C 30.2 °F /  -1 °C 30in /  1014.7hPa OSO 2.1mph /  3.4km/h 5mph /  8km/h 48.9% 0in /  0.0mm
04:19 48.9 °F /  9.4 °C 30.6 °F /  -0.8 °C 30in /  1014.7hPa SSO 2mph /  3.2km/h 5.2mph /  8.4km/h 48.9% 0in /  0.0mm
04:24 48.7 °F /  9.3 °C 30.6 °F /  -0.8 °C 30in /  1014.7hPa SSO 2.7mph /  4.4km/h 5.2mph /  8.4km/h 49.2% 0in /  0.0mm
04:29 48.6 °F /  9.2 °C 30.7 °F /  -0.7 °C 30in /  1014.6hPa SSO 3.1mph /  5km/h 5mph /  8km/h 50% 0in /  0.0mm
04:34 48 °F /  8.9 °C 30.7 °F /  -0.7 °C 30in /  1014.6hPa SO 2.7mph /  4.3km/h 5mph /  8km/h 50.9% 0in /  0.0mm
04:39 47.8 °F /  8.8 °C 30.7 °F /  -0.7 °C 30in /  1014.9hPa Oeste 2.4mph /  3.9km/h 5mph /  8km/h 51.3% 0in /  0.0mm
04:44 47.5 °F /  8.6 °C 30.9 °F /  -0.6 °C 30in /  1014.9hPa Oeste 2mph /  3.2km/h 3mph /  4.8km/h 52.7% 0in /  0.0mm
04:49 46.9 °F /  8.3 °C 31.1 °F /  -0.5 °C 30in /  1014.9hPa Oeste 1.8mph /  2.9km/h 2.4mph /  3.9km/h 53.9% 0in /  0.0mm
04:54 46.6 °F /  8.1 °C 31.1 °F /  -0.5 °C 30in /  1014.9hPa Oeste 1.6mph /  2.5km/h 2.9mph /  4.7km/h 54.6% 0in /  0.0mm
04:59 46 °F /  7.8 °C 30.9 °F /  -0.6 °C 30in /  1014.8hPa Oeste 1.4mph /  2.2km/h 4.6mph /  7.4km/h 55% 0in /  0.0mm
05:04 45.9 °F /  7.7 °C 30.9 °F /  -0.6 °C 30in /  1014.8hPa Oeste 1.8mph /  2.9km/h 5mph /  8km/h 55.9% 0in /  0.0mm
05:09 45.5 °F /  7.5 °C 30.9 °F /  -0.6 °C 30in /  1014.8hPa Oeste 2mph /  3.2km/h 4mph /  6.4km/h 56.5% 0in /  0.0mm
05:14 45.3 °F /  7.4 °C 30.9 °F /  -0.6 °C 30in /  1014.7hPa Oeste 2mph /  3.2km/h 5.2mph /  8.4km/h 57% 0in /  0.0mm
05:19 45.1 °F /  7.3 °C 30.9 °F /  -0.6 °C 30in /  1014.7hPa Oeste 2mph /  3.2km/h 5.2mph /  8.4km/h 57% 0in /  0.0mm
05:24 45.1 °F /  7.3 °C 30.7 °F /  -0.7 °C 30in /  1014.7hPa Oeste 2.7mph /  4.4km/h 6.9mph /  11.1km/h 57% 0in /  0.0mm
05:29 45.1 °F /  7.3 °C 30.7 °F /  -0.7 °C 30in /  1014.7hPa OSO 3.1mph /  5km/h 7mph /  11.3km/h 57% 0in /  0.0mm
05:34 45.1 °F /  7.3 °C 30.7 °F /  -0.7 °C 30in /  1014.7hPa OSO 3.9mph /  6.3km/h 7mph /  11.3km/h 57% 0in /  0.0mm
05:39 45 °F /  7.2 °C 30.9 °F /  -0.6 °C 30in /  1014.7hPa OSO 4.3mph /  6.9km/h 6.2mph /  10km/h 57.6% 0in /  0.0mm
05:44 45 °F /  7.2 °C 31.1 °F /  -0.5 °C 30in /  1014.7hPa OSO 3.9mph /  6.2km/h 6mph /  9.7km/h 58% 0in /  0.0mm
05:49 45 °F /  7.2 °C 31.1 °F /  -0.5 °C 30in /  1014.7hPa OSO 3.6mph /  5.8km/h 6mph /  9.7km/h 57.9% 0in /  0.0mm
05:54 45.1 °F /  7.3 °C 30.9 °F /  -0.6 °C 30in /  1014.8hPa SO 3.1mph /  5km/h 5mph /  8km/h 57.3% 0in /  0.0mm
05:59 45.1 °F /  7.3 °C 30.9 °F /  -0.6 °C 30in /  1014.8hPa Sur 2.9mph /  4.7km/h 5mph /  8km/h 57% 0in /  0.0mm
06:04 45.3 °F /  7.4 °C 31.3 °F /  -0.4 °C 30in /  1014.8hPa Sur 2.2mph /  3.6km/h 4mph /  6.4km/h 57.8% 0in /  0.0mm
06:09 45.3 °F /  7.4 °C 31.5 °F /  -0.3 °C 30in /  1014.9hPa Sur 2mph /  3.2km/h 4.6mph /  7.4km/h 58% 0in /  0.0mm
06:14 45.3 °F /  7.4 °C 31.5 °F /  -0.3 °C 30in /  1014.9hPa Sur 1.9mph /  3km/h 5mph /  8km/h 58% 0in /  0.0mm
06:19 45.1 °F /  7.3 °C 31.5 °F /  -0.3 °C 30in /  1014.9hPa Sur 1.8mph /  2.9km/h 4.6mph /  7.4km/h 58.4% 0in /  0.0mm
06:24 45.1 °F /  7.3 °C 31.6 °F /  -0.2 °C 30in /  1015.1hPa Sur 2.2mph /  3.5km/h 5mph /  8km/h 59% 0in /  0.0mm
06:29 45 °F /  7.2 °C 31.6 °F /  -0.2 °C 30in /  1015.1hPa SSO 2.4mph /  3.9km/h 5.2mph /  8.4km/h 59% 0in /  0.0mm
06:34 45 °F /  7.2 °C 31.5 °F /  -0.3 °C 30in /  1015.1hPa SO 2.1mph /  3.4km/h 5mph /  8km/h 59.1% 0in /  0.0mm
06:39 45 °F /  7.2 °C 31.6 °F /  -0.2 °C 30in /  1015.1hPa OSO 2mph /  3.2km/h 4.3mph /  6.9km/h 59.6% 0in /  0.0mm
06:44 44.8 °F /  7.1 °C 31.5 °F /  -0.3 °C 30in /  1015.0hPa SSE 2.2mph /  3.6km/h 5.8mph /  9.3km/h 59.4% 0in /  0.0mm
06:49 44.4 °F /  6.9 °C 30.9 °F /  -0.6 °C 30in /  1015.0hPa SSE 2.4mph /  3.9km/h 6mph /  9.7km/h 59% 0in /  0.0mm
06:54 44.1 °F /  6.7 °C 30.6 °F /  -0.8 °C 30in /  1015.0hPa Sur 3.2mph /  5.1km/h 6.9mph /  11.1km/h 59% 0in /  0.0mm
06:59 43.9 °F /  6.6 °C 30.7 °F /  -0.7 °C 30in /  1014.9hPa Sur 3.6mph /  5.8km/h 7mph /  11.3km/h 59.5% 0in /  0.0mm
07:04 43.9 °F /  6.6 °C 30.9 °F /  -0.6 °C 30in /  1014.9hPa Sur 4.1mph /  6.6km/h 7.6mph /  12.2km/h 59.9% 0in /  0.0mm
07:09 44.1 °F /  6.7 °C 30.6 °F /  -0.8 °C 30in /  1015.0hPa Sur 4.3mph /  6.9km/h 9.7mph /  15.6km/h 59% 0in /  0.0mm
07:14 44.2 °F /  6.8 °C 30.4 °F /  -0.9 °C 30in /  1015.0hPa Sur 5.3mph /  8.6km/h 10mph /  16.1km/h 58.2% 0in /  0.0mm
07:19 44.4 °F /  6.9 °C 30.4 °F /  -0.9 °C 30in /  1015.0hPa Sur 5.9mph /  9.5km/h 9mph /  14.5km/h 57.4% 0in /  0.0mm
07:24 44.8 °F /  7.1 °C 30.6 °F /  -0.8 °C 30in /  1015.1hPa Sur 5.1mph /  8.2km/h 6.9mph /  11.1km/h 57% 0in /  0.0mm
07:29 45 °F /  7.2 °C 30.6 °F /  -0.8 °C 30in /  1015.1hPa SSO 4.7mph /  7.6km/h 7mph /  11.3km/h 57% 0in /  0.0mm
07:34 45 °F /  7.2 °C 30.6 °F /  -0.8 °C 30in /  1015.1hPa SSO 4.4mph /  7.1km/h 6mph /  9.7km/h 57% 0in /  0.0mm
07:39 45.1 °F /  7.3 °C 30.4 °F /  -0.9 °C 30in /  1015.2hPa SSO 4.3mph /  6.9km/h 6.9mph /  11.1km/h 56.3% 0in /  0.0mm
07:44 45.5 °F /  7.5 °C 30.4 °F /  -0.9 °C 30in /  1015.2hPa SSO 4.6mph /  7.4km/h 7mph /  11.3km/h 55.1% 0in /  0.0mm
07:49 45.9 °F /  7.7 °C 30.6 °F /  -0.8 °C 30in /  1015.2hPa SSO 4.7mph /  7.6km/h 6mph /  9.7km/h 55% 0in /  0.0mm
07:54 45.9 °F /  7.7 °C 30.6 °F /  -0.8 °C 30in /  1015.2hPa SSO 4mph /  6.4km/h 6mph /  9.7km/h 55% 0in /  0.0mm
07:59 45.9 °F /  7.7 °C 30.7 °F /  -0.7 °C 30in /  1015.1hPa SSO 3.6mph /  5.8km/h 5mph /  8km/h 55% 0in /  0.0mm
08:04 45.9 °F /  7.7 °C 30.6 °F /  -0.8 °C 30in /  1015.1hPa SSO 2.8mph /  4.5km/h 5mph /  8km/h 55% 0in /  0.0mm
08:09 45.9 °F /  7.7 °C 30.6 °F /  -0.8 °C 30in /  1015.3hPa SSO 2.4mph /  3.9km/h 5mph /  8km/h 55% 0in /  0.0mm
08:14 45.9 °F /  7.7 °C 30.7 °F /  -0.7 °C 30in /  1015.3hPa SSO 1.7mph /  2.8km/h 2mph /  3.2km/h 55.7% 0in /  0.0mm
08:19 45.7 °F /  7.6 °C 31.3 °F /  -0.4 °C 30in /  1015.3hPa SSO 1.4mph /  2.2km/h   56.9% 0in /  0.0mm
08:24 45.7 °F /  7.6 °C 31.1 °F /  -0.5 °C 30in /  1015.3hPa SSO 0.5mph /  0.8km/h 5.9mph /  9.5km/h 56.5% 0in /  0.0mm
08:29 45.9 °F /  7.7 °C 30.9 °F /  -0.6 °C 30in /  1015.3hPa Calm   6mph /  9.7km/h 55.9% 0in /  0.0mm
08:34 45.9 °F /  7.7 °C 30.7 °F /  -0.7 °C 30in /  1015.3hPa OSO 2.6mph /  4.2km/h 6mph /  9.7km/h 55.5% 0in /  0.0mm
08:39 45.9 °F /  7.7 °C 30.9 °F /  -0.6 °C 30in /  1015.4hPa OSO 4mph /  6.5km/h 6mph /  9.7km/h 56% 0in /  0.0mm
08:44 45.9 °F /  7.7 °C 30.9 °F /  -0.6 °C 30in /  1015.4hPa OSO 3.3mph /  5.3km/h 5.2mph /  8.4km/h 56% 0in /  0.0mm
08:49 45.9 °F /  7.7 °C 31.1 °F /  -0.5 °C 30in /  1015.4hPa OSO 2.9mph /  4.7km/h 5.9mph /  9.5km/h 56.2% 0in /  0.0mm
08:54 45.9 °F /  7.7 °C 31.3 °F /  -0.4 °C 30in /  1015.5hPa SO 3mph /  4.9km/h 6.2mph /  10km/h 56.3% 0in /  0.0mm
08:59 46.2 °F /  7.9 °C 31.3 °F /  -0.4 °C 30in /  1015.5hPa Oeste 3.1mph /  5km/h 6mph /  9.7km/h 56% 0in /  0.0mm
09:04 46.2 °F /  7.9 °C 31.6 °F /  -0.2 °C 30in /  1015.5hPa Oeste 3.1mph /  5km/h 6mph /  9.7km/h 56.5% 0in /  0.0mm
09:09 46.2 °F /  7.9 °C 31.8 °F /  -0.1 °C 30in /  1015.6hPa Oeste 3.1mph /  5km/h 6mph /  9.7km/h 57% 0in /  0.0mm
09:14 46.2 °F /  7.9 °C 31.8 °F /  -0.1 °C 30in /  1015.6hPa OSO 3.4mph /  5.5km/h 6mph /  9.7km/h 57% 0in /  0.0mm
09:19 46.4 °F /  8 °C 32 °F /  0 °C 30in /  1015.6hPa OSO 3.6mph /  5.8km/h 6mph /  9.7km/h 57% 0in /  0.0mm
09:24 46.8 °F /  8.2 °C 32.2 °F /  0.1 °C 30in /  1015.6hPa SSO 3.2mph /  5.1km/h 6mph /  9.7km/h 56.9% 0in /  0.0mm
09:29 47.3 °F /  8.5 °C 32 °F /  0 °C 30in /  1015.6hPa SSO 2.9mph /  4.7km/h 9.2mph /  14.8km/h 55.2% 0in /  0.0mm
09:34 47.8 °F /  8.8 °C 31.6 °F /  -0.2 °C 30in /  1015.6hPa SSO 3.6mph /  5.8km/h 9.2mph /  14.8km/h 53.2% 0in /  0.0mm
09:39 48 °F /  8.9 °C 31.8 °F /  -0.1 °C 30in /  1015.6hPa SSO 4mph /  6.5km/h 9mph /  14.5km/h 53% 0in /  0.0mm
09:44 48.6 °F /  9.2 °C 32 °F /  0 °C 30in /  1015.5hPa SSO 4.5mph /  7.2km/h 8.1mph /  13km/h 53% 0in /  0.0mm
09:49 48.7 °F /  9.3 °C 32.4 °F /  0.2 °C 30in /  1015.5hPa SSO 4.7mph /  7.6km/h 6.2mph /  10km/h 53% 0in /  0.0mm
09:54 48.9 °F /  9.4 °C 32.5 °F /  0.3 °C 30in /  1015.6hPa OSO 3.7mph /  5.9km/h 6mph /  9.7km/h 53% 0in /  0.0mm
09:59 49.3 °F /  9.6 °C 32.9 °F /  0.5 °C 30in /  1015.6hPa Oeste 3.1mph /  5km/h 5.9mph /  9.5km/h 53% 0in /  0.0mm
10:04 49.3 °F /  9.6 °C 32.9 °F /  0.5 °C 30in /  1015.6hPa Oeste 3mph /  4.8km/h 6mph /  9.7km/h 53% 0in /  0.0mm
10:09 49.5 °F /  9.7 °C 33.1 °F /  0.6 °C 30in /  1015.6hPa OSO 2.9mph /  4.7km/h 6.2mph /  10km/h 53.3% 0in /  0.0mm
10:14 49.6 °F /  9.8 °C 33.1 °F /  0.6 °C 30in /  1015.5hPa OSO 3.6mph /  5.8km/h 6mph /  9.7km/h 53% 0in /  0.0mm
10:19 49.8 °F /  9.9 °C 33.1 °F /  0.6 °C 30in /  1015.5hPa SO 4mph /  6.5km/h 6.9mph /  11.1km/h 52.3% 0in /  0.0mm
10:24 50.4 °F /  10.2 °C 33.4 °F /  0.8 °C 30in /  1015.6hPa SO 4mph /  6.5km/h 7mph /  11.3km/h 52% 0in /  0.0mm
10:29 50.9 °F /  10.5 °C 33.4 °F /  0.8 °C 30in /  1015.6hPa SSO 4mph /  6.5km/h 7mph /  11.3km/h 50.8% 0in /  0.0mm
10:34 51.6 °F /  10.9 °C 33.3 °F /  0.7 °C 30in /  1015.6hPa Sur 3.3mph /  5.3km/h 6.2mph /  10km/h 49.4% 0in /  0.0mm
10:39 52 °F /  11.1 °C 33.4 °F /  0.8 °C 30in /  1015.6hPa SO 2.9mph /  4.7km/h 6.2mph /  10km/h 49% 0in /  0.0mm
10:44 52.3 °F /  11.3 °C 33.1 °F /  0.6 °C 30in /  1015.5hPa SO 3.4mph /  5.4km/h 7.4mph /  11.9km/h 47.8% 0in /  0.0mm
10:49 52.5 °F /  11.4 °C 33.3 °F /  0.7 °C 30in /  1015.5hPa SO 3.6mph /  5.8km/h 7mph /  11.3km/h 47.9% 0in /  0.0mm
10:54 53.1 °F /  11.7 °C 33.4 °F /  0.8 °C 30in /  1015.5hPa SSO 3.6mph /  5.8km/h 6.2mph /  10km/h 47.3% 0in /  0.0mm
10:59 53.2 °F /  11.8 °C 33.1 °F /  0.6 °C 30in /  1015.4hPa SSO 3.6mph /  5.8km/h 10mph /  16.1km/h 46.1% 0in /  0.0mm
11:04 53.4 °F /  11.9 °C 33.3 °F /  0.7 °C 30in /  1015.4hPa SO 4.7mph /  7.5km/h 10.4mph /  16.7km/h 46% 0in /  0.0mm
11:09 53.8 °F /  12.1 °C 33.3 °F /  0.7 °C 30in /  1015.4hPa SSO 5.2mph /  8.4km/h 9.2mph /  14.8km/h 45.6% 0in /  0.0mm
11:14 54 °F /  12.2 °C 33.6 °F /  0.9 °C 30in /  1015.3hPa SSO 5.3mph /  8.6km/h 9mph /  14.5km/h 46% 0in /  0.0mm
11:19 54.1 °F /  12.3 °C 33.8 °F /  1 °C 30in /  1015.3hPa SO 5.4mph /  8.7km/h 8mph /  12.9km/h 45.9% 0in /  0.0mm
11:24 54.7 °F /  12.6 °C 33.8 °F /  1 °C 30in /  1015.3hPa SSO 4.7mph /  7.5km/h 7mph /  11.3km/h 45.3% 0in /  0.0mm
11:29 55 °F /  12.8 °C 34 °F /  1.1 °C 30in /  1015.3hPa SSO 4.3mph /  6.9km/h 7mph /  11.3km/h 44.7% 0in /  0.0mm
11:34 55.6 °F /  13.1 °C 33.6 °F /  0.9 °C 30in /  1015.3hPa SO 4.1mph /  6.6km/h 10mph /  16.1km/h 43.5% 0in /  0.0mm
11:39 55.8 °F /  13.2 °C 33.1 °F /  0.6 °C 30in /  1015.3hPa SSO 4mph /  6.5km/h 10.4mph /  16.7km/h 42% 0in /  0.0mm
11:44 55.9 °F /  13.3 °C 33.1 °F /  0.6 °C 30in /  1015.2hPa Sur 4.2mph /  6.8km/h 10mph /  16.1km/h 41.8% 0in /  0.0mm
11:49 56.1 °F /  13.4 °C 32.9 °F /  0.5 °C 30in /  1015.2hPa SSO 4.3mph /  6.9km/h 9mph /  14.5km/h 41.3% 0in /  0.0mm
11:54 56.1 °F /  13.4 °C 32.9 °F /  0.5 °C 30in /  1015.2hPa Sur 4.9mph /  7.9km/h 8mph /  12.9km/h 41.3% 0in /  0.0mm
11:59 56.5 °F /  13.6 °C 32.9 °F /  0.5 °C 30in /  1014.9hPa SSO 5.2mph /  8.4km/h 9.2mph /  14.8km/h 40.8% 0in /  0.0mm
12:04 56.7 °F /  13.7 °C 32.9 °F /  0.5 °C 30in /  1014.9hPa SSO 5.3mph /  8.6km/h 10.7mph /  17.2km/h 40.4% 0in /  0.0mm
12:09 56.7 °F /  13.7 °C 32.5 °F /  0.3 °C 30in /  1014.9hPa Sur 5.4mph /  8.7km/h 11.2mph /  18km/h 40% 0in /  0.0mm
12:14 56.7 °F /  13.7 °C 32.7 °F /  0.4 °C 30in /  1014.6hPa Sur 6.1mph /  9.8km/h 11mph /  17.7km/h 40% 0in /  0.0mm
12:19 56.8 °F /  13.8 °C 32.4 °F /  0.2 °C 30in /  1014.6hPa SSO 6.4mph /  10.3km/h 10mph /  16.1km/h 39.3% 0in /  0.0mm
12:24 57 °F /  13.9 °C 32.4 °F /  0.2 °C 30in /  1014.6hPa SSO 6.3mph /  10.1km/h 9.2mph /  14.8km/h 39% 0in /  0.0mm
12:29 57.6 °F /  14.2 °C 32.5 °F /  0.3 °C 30in /  1014.3hPa Sur 6.2mph /  10km/h 9mph /  14.5km/h 38.6% 0in /  0.0mm
12:34 58.1 °F /  14.5 °C 32.5 °F /  0.3 °C 30in /  1014.3hPa Sur 5.2mph /  8.4km/h 9.7mph /  15.6km/h 37.7% 0in /  0.0mm
12:39 58.6 °F /  14.8 °C 32.4 °F /  0.2 °C 30in /  1014.3hPa SSO 4.7mph /  7.6km/h 11.8mph /  19km/h 37% 0in /  0.0mm
12:44 58.6 °F /  14.8 °C 32.4 °F /  0.2 °C 29.9in /  1014.0hPa Sur 5.2mph /  8.3km/h 12mph /  19.3km/h 37% 0in /  0.0mm
12:49 58.8 °F /  14.9 °C 32.7 °F /  0.4 °C 29.9in /  1014.0hPa SSO 5.4mph /  8.7km/h 9.2mph /  14.8km/h 37.1% 0in /  0.0mm
12:54 59 °F /  15 °C 32.9 °F /  0.5 °C 29.9in /  1014.0hPa Sur 5.3mph /  8.5km/h 9.2mph /  14.8km/h 37.2% 0in /  0.0mm
12:59 59.4 °F /  15.2 °C 32.5 °F /  0.3 °C 29.9in /  1013.6hPa SSO 5.2mph /  8.4km/h 12.7mph /  20.4km/h 36.4% 0in /  0.0mm
13:04 59.4 °F /  15.2 °C 33.3 °F /  0.7 °C 29.9in /  1013.6hPa SSO 5.9mph /  9.5km/h 13mph /  20.9km/h 37.4% 0in /  0.0mm
13:09 59.7 °F /  15.4 °C 32.4 °F /  0.2 °C 29.9in /  1013.6hPa SSO 6.2mph /  10km/h 13.8mph /  22.2km/h 35.6% 0in /  0.0mm
13:14 59.9 °F /  15.5 °C 32 °F /  0 °C 29.9in /  1013.2hPa SO 5.7mph /  9.1km/h 14mph /  22.5km/h 34.9% 0in /  0.0mm
13:19 59.9 °F /  15.5 °C 32 °F /  0 °C 29.9in /  1013.2hPa OSO 5.4mph /  8.7km/h 10mph /  16.1km/h 34.7% 0in /  0.0mm
13:24 60.1 °F /  15.6 °C 31.5 °F /  -0.3 °C 29.9in /  1013.2hPa OSO 6mph /  9.6km/h 10.4mph /  16.7km/h 34% 0in /  0.0mm
13:29 60.3 °F /  15.7 °C 31.6 °F /  -0.2 °C 29.9in /  1013.0hPa OSO 6.2mph /  10km/h 9mph /  14.5km/h 34% 0in /  0.0mm
13:34 60.4 °F /  15.8 °C 32 °F /  0 °C 29.9in /  1013.0hPa OSO 4.5mph /  7.3km/h 8.1mph /  13km/h 34.1% 0in /  0.0mm
13:39 60.8 °F /  16 °C 32.7 °F /  0.4 °C 29.9in /  1013.0hPa SO 3.6mph /  5.8km/h 12.7mph /  20.4km/h 34.7% 0in /  0.0mm
13:44 61.2 °F /  16.2 °C 33.3 °F /  0.7 °C 29.9in /  1012.8hPa SSO 5.3mph /  8.5km/h 14mph /  22.5km/h 35% 0in /  0.0mm
13:49 61 °F /  16.1 °C 33.3 °F /  0.7 °C 29.9in /  1012.8hPa SO 6.2mph /  10km/h 14mph /  22.5km/h 35.3% 0in /  0.0mm
13:54 61 °F /  16.1 °C 33.4 °F /  0.8 °C 29.9in /  1012.8hPa SSO 7.1mph /  11.4km/h 13.5mph /  21.7km/h 35.4% 0in /  0.0mm
13:59 61.2 °F /  16.2 °C 33.3 °F /  0.7 °C 29.9in /  1012.6hPa Sur 7.6mph /  12.2km/h 14mph /  22.5km/h 35% 0in /  0.0mm
14:04 61.3 °F /  16.3 °C 33.4 °F /  0.8 °C 29.9in /  1012.6hPa SSO 7.6mph /  12.2km/h 12mph /  19.3km/h 35% 0in /  0.0mm
14:09 61.5 °F /  16.4 °C 33.4 °F /  0.8 °C 29.9in /  1012.6hPa SSO 7.6mph /  12.2km/h 13mph /  20.9km/h 34.9% 0in /  0.0mm
14:14 61.3 °F /  16.3 °C 33.3 °F /  0.7 °C 29.9in /  1012.2hPa SSO 7.1mph /  11.5km/h 13mph /  20.9km/h 34.7% 0in /  0.0mm
14:19 61.3 °F /  16.3 °C 33.4 °F /  0.8 °C 29.9in /  1012.2hPa SSO 6.9mph /  11.1km/h 13.8mph /  22.2km/h 35% 0in /  0.0mm
14:24 61.3 °F /  16.3 °C 33.6 °F /  0.9 °C 29.9in /  1012.2hPa SSO 7.2mph /  11.6km/h 14mph /  22.5km/h 35.3% 0in /  0.0mm
14:29 61.3 °F /  16.3 °C 34 °F /  1.1 °C 29.9in /  1012.0hPa SSO 7.4mph /  11.9km/h 13mph /  20.9km/h 35.7% 0in /  0.0mm
14:34 61.3 °F /  16.3 °C 33.6 °F /  0.9 °C 29.9in /  1012.0hPa SSO 7.5mph /  12.1km/h 13mph /  20.9km/h 35.2% 0in /  0.0mm
14:39 61.5 °F /  16.4 °C 33.8 °F /  1 °C 29.9in /  1012.0hPa SSO 7.6mph /  12.2km/h 12.7mph /  20.4km/h 35.1% 0in /  0.0mm
14:44 62.1 °F /  16.7 °C 34.2 °F /  1.2 °C 29.9in /  1011.7hPa SSO 6.8mph /  11km/h 13mph /  20.9km/h 35.3% 0in /  0.0mm
14:49 62.2 °F /  16.8 °C 34.2 °F /  1.2 °C 29.9in /  1011.7hPa SSO 6.4mph /  10.3km/h 13.7mph /  22km/h 35% 0in /  0.0mm
14:54 62.4 °F /  16.9 °C 34.3 °F /  1.3 °C 29.9in /  1011.7hPa SO 7.1mph /  11.5km/h 14mph /  22.5km/h 35% 0in /  0.0mm
14:59 62.8 °F /  17.1 °C 34.7 °F /  1.5 °C 29.9in /  1011.6hPa SO 7.6mph /  12.2km/h 14mph /  22.5km/h 35% 0in /  0.0mm
15:04 63.1 °F /  17.3 °C 34.9 °F /  1.6 °C 29.9in /  1011.6hPa SO 6.1mph /  9.8km/h 9mph /  14.5km/h 34.8% 0in /  0.0mm
15:09 63.3 °F /  17.4 °C 35.2 °F /  1.8 °C 29.9in /  1011.6hPa OSO 5.4mph /  8.7km/h 8.1mph /  13km/h 35% 0in /  0.0mm
15:14 63.7 °F /  17.6 °C 34.9 °F /  1.6 °C 29.9in /  1011.5hPa OSO 4.7mph /  7.5km/h 7.4mph /  11.9km/h 34.1% 0in /  0.0mm
15:19 63.9 °F /  17.7 °C 34.9 °F /  1.6 °C 29.9in /  1011.5hPa Oeste 4.3mph /  6.9km/h 8.1mph /  13km/h 34% 0in /  0.0mm
15:24 64 °F /  17.8 °C 35.4 °F /  1.9 °C 29.9in /  1011.5hPa OSO 4.6mph /  7.4km/h 8.1mph /  13km/h 34.6% 0in /  0.0mm
15:29 64 °F /  17.8 °C 35.8 °F /  2.1 °C 29.9in /  1011.3hPa SO 4.7mph /  7.6km/h 8mph /  12.9km/h 34.8% 0in /  0.0mm
15:34 64 °F /  17.8 °C 35.6 °F /  2 °C 29.9in /  1011.3hPa OSO 4.2mph /  6.8km/h 8.5mph /  13.7km/h 34.8% 0in /  0.0mm
15:39 63.9 °F /  17.7 °C 35.6 °F /  2 °C 29.9in /  1011.3hPa OSO 4mph /  6.5km/h 9.7mph /  15.6km/h 35% 0in /  0.0mm
15:44 63.5 °F /  17.5 °C 35.4 °F /  1.9 °C 29.9in /  1011.3hPa Oeste 4.5mph /  7.2km/h 10mph /  16.1km/h 35% 0in /  0.0mm
15:49 63.3 °F /  17.4 °C 35.2 °F /  1.8 °C 29.9in /  1011.3hPa Oeste 4.7mph /  7.6km/h 7mph /  11.3km/h 35.1% 0in /  0.0mm
15:54 63.3 °F /  17.4 °C 36 °F /  2.2 °C 29.9in /  1011.3hPa ONO 4mph /  6.4km/h 6mph /  9.7km/h 36% 0in /  0.0mm
15:59 63.3 °F /  17.4 °C 36.3 °F /  2.4 °C 29.9in /  1011.1hPa SE 3.6mph /  5.8km/h 5mph /  8km/h 36.6% 0in /  0.0mm
16:04 63.5 °F /  17.5 °C 36.7 °F /  2.6 °C 29.9in /  1011.1hPa SO 2.5mph /  4km/h 6.2mph /  10km/h 37% 0in /  0.0mm
16:09 63.7 °F /  17.6 °C 36.9 °F /  2.7 °C 29.9in /  1011.1hPa OSO 2mph /  3.2km/h 6mph /  9.7km/h 37% 0in /  0.0mm
16:14 63.7 °F /  17.6 °C 36.9 °F /  2.7 °C 29.9in /  1011.0hPa OSO 2.7mph /  4.4km/h 6.9mph /  11.1km/h 36.9% 0in /  0.0mm
16:19 63.7 °F /  17.6 °C 36.9 °F /  2.7 °C 29.9in /  1011.0hPa OSO 3.1mph /  5km/h 7mph /  11.3km/h 37% 0in /  0.0mm
16:24 63.3 °F /  17.4 °C 36.7 °F /  2.6 °C 29.9in /  1011.0hPa SO 3.4mph /  5.5km/h 9.7mph /  15.6km/h 37% 0in /  0.0mm
16:29 63.1 °F /  17.3 °C 36.5 °F /  2.5 °C 29.9in /  1011.0hPa SO 3.6mph /  5.8km/h 10.4mph /  16.7km/h 37% 0in /  0.0mm
16:34 63.1 °F /  17.3 °C 36.3 °F /  2.4 °C 29.9in /  1011.0hPa SO 5.1mph /  8.2km/h 10mph /  16.1km/h 37% 0in /  0.0mm
16:39 63 °F /  17.2 °C 36.3 °F /  2.4 °C 29.9in /  1011.0hPa SO 5.9mph /  9.5km/h 10.4mph /  16.7km/h 37.1% 0in /  0.0mm
16:44 62.8 °F /  17.1 °C 36.9 °F /  2.7 °C 29.9in /  1010.9hPa Oeste 5.5mph /  8.8km/h 10mph /  16.1km/h 38% 0in /  0.0mm
16:49 62.6 °F /  17 °C 36.7 °F /  2.6 °C 29.9in /  1010.9hPa OSO 5.2mph /  8.4km/h 7mph /  11.3km/h 38% 0in /  0.0mm
16:54 62.4 °F /  16.9 °C 36.7 °F /  2.6 °C 29.9in /  1010.9hPa Oeste 4.4mph /  7.1km/h 6mph /  9.7km/h 38.3% 0in /  0.0mm
16:59 62.1 °F /  16.7 °C 36.9 °F /  2.7 °C 29.8in /  1010.7hPa Oeste 4mph /  6.5km/h 6.9mph /  11.1km/h 39% 0in /  0.0mm
17:04 62.1 °F /  16.7 °C 36.9 °F /  2.7 °C 29.8in /  1010.7hPa Oeste 3.7mph /  6km/h 7mph /  11.3km/h 39% 0in /  0.0mm
17:09 62.1 °F /  16.7 °C 36.9 °F /  2.7 °C 29.8in /  1010.7hPa ONO 3.6mph /  5.8km/h 7.4mph /  11.9km/h 39% 0in /  0.0mm
17:14 62.2 °F /  16.8 °C 36.9 °F /  2.7 °C 29.8in /  1010.6hPa ONO 4mph /  6.5km/h 7mph /  11.3km/h 39% 0in /  0.0mm
17:19 62.2 °F /  16.8 °C 37 °F /  2.8 °C 29.8in /  1010.6hPa ONO 4.3mph /  6.9km/h 8.1mph /  13km/h 39% 0in /  0.0mm
17:24 62.2 °F /  16.8 °C 37 °F /  2.8 °C 29.8in /  1010.6hPa ONO 4.1mph /  6.6km/h 8mph /  12.9km/h 39% 0in /  0.0mm
17:29 62.1 °F /  16.7 °C 36.9 °F /  2.7 °C 29.8in /  1010.6hPa ONO 4mph /  6.5km/h 7mph /  11.3km/h 39% 0in /  0.0mm
17:34 62.1 °F /  16.7 °C 37.2 °F /  2.9 °C 29.8in /  1010.6hPa ONO 4mph /  6.5km/h 8.5mph /  13.7km/h 39.8% 0in /  0.0mm
17:39 61.7 °F /  16.5 °C 37 °F /  2.8 °C 29.8in /  1010.6hPa ONO 4mph /  6.5km/h 9mph /  14.5km/h 40% 0in /  0.0mm
17:44 61.5 °F /  16.4 °C 37.2 °F /  2.9 °C 29.8in /  1010.6hPa Oeste 4.8mph /  7.7km/h 8mph /  12.9km/h 40.6% 0in /  0.0mm
17:49 61.3 °F /  16.3 °C 37.4 °F /  3 °C 29.8in /  1010.6hPa ONO 5.2mph /  8.4km/h 7mph /  11.3km/h 41% 0in /  0.0mm
17:54 61.2 °F /  16.2 °C 37.4 °F /  3 °C 29.8in /  1010.6hPa ONO 4.1mph /  6.6km/h 8.1mph /  13km/h 41.4% 0in /  0.0mm
17:59 60.8 °F /  16 °C 37.9 °F /  3.3 °C 29.8in /  1010.5hPa ONO 3.6mph /  5.8km/h 8.1mph /  13km/h 42.6% 0in /  0.0mm
18:04 60.4 °F /  15.8 °C 38.8 °F /  3.8 °C 29.8in /  1010.5hPa ONO 4.7mph /  7.6km/h 8mph /  12.9km/h 44.8% 0in /  0.0mm
18:09 60.3 °F /  15.7 °C 39.6 °F /  4.2 °C 29.8in /  1010.7hPa ONO 5.2mph /  8.4km/h 7mph /  11.3km/h 46.5% 0in /  0.0mm
18:14 59.9 °F /  15.5 °C 39.7 °F /  4.3 °C 29.8in /  1010.7hPa ONO 4.6mph /  7.4km/h 7mph /  11.3km/h 47% 0in /  0.0mm
18:19 59.7 °F /  15.4 °C 39.9 °F /  4.4 °C 29.8in /  1010.7hPa ONO 4.3mph /  6.9km/h 5.2mph /  8.4km/h 47.8% 0in /  0.0mm
18:24 59.5 °F /  15.3 °C 39.9 °F /  4.4 °C 29.8in /  1010.7hPa ONO 3.4mph /  5.4km/h 5mph /  8km/h 48% 0in /  0.0mm
18:29 59.5 °F /  15.3 °C 39.9 °F /  4.4 °C 29.8in /  1010.6hPa NO 2.9mph /  4.7km/h 5mph /  8km/h 48.4% 0in /  0.0mm
18:34 59.4 °F /  15.2 °C 40.1 °F /  4.5 °C 29.8in /  1010.6hPa Oeste 2.5mph /  4.1km/h 4.6mph /  7.4km/h 49% 0in /  0.0mm
18:39 59.2 °F /  15.1 °C 40.1 °F /  4.5 °C 29.8in /  1010.6hPa ONO 2.4mph /  3.9km/h 5.8mph /  9.3km/h 49.4% 0in /  0.0mm
18:44 58.8 °F /  14.9 °C 40.1 °F /  4.5 °C 29.8in /  1010.5hPa ONO 2.9mph /  4.6km/h 6mph /  9.7km/h 50% 0in /  0.0mm
18:49 58.6 °F /  14.8 °C 40.3 °F /  4.6 °C 29.8in /  1010.5hPa Oeste 3.1mph /  5km/h 5mph /  8km/h 50.4% 0in /  0.0mm
18:54 58.5 °F /  14.7 °C 40.5 °F /  4.7 °C 29.8in /  1010.5hPa SSO 2.4mph /  3.8km/h 5mph /  8km/h 51% 0in /  0.0mm
18:59 58.5 °F /  14.7 °C 40.5 °F /  4.7 °C 29.8in /  1010.4hPa Sur 2mph /  3.2km/h 6.2mph /  10km/h 51% 0in /  0.0mm
19:04 58.3 °F /  14.6 °C 40.6 °F /  4.8 °C 29.8in /  1010.4hPa SSE 2.3mph /  3.7km/h 6mph /  9.7km/h 51.8% 0in /  0.0mm
19:09 58.1 °F /  14.5 °C 40.5 °F /  4.7 °C 29.8in /  1010.4hPa Sur 2.4mph /  3.9km/h 5mph /  8km/h 52% 0in /  0.0mm
19:14 58.3 °F /  14.6 °C 40.6 °F /  4.8 °C 29.8in /  1010.3hPa SSE 2.7mph /  4.4km/h 5mph /  8km/h 52% 0in /  0.0mm
19:19 58.1 °F /  14.5 °C 40.6 °F /  4.8 °C 29.8in /  1010.3hPa Sur 2.9mph /  4.7km/h 5mph /  8km/h 52% 0in /  0.0mm
19:24 57.9 °F /  14.4 °C 40.6 °F /  4.8 °C 29.8in /  1010.3hPa SSE 2.5mph /  4.1km/h 5mph /  8km/h 52.6% 0in /  0.0mm
19:29 57.4 °F /  14.1 °C 40.6 °F /  4.8 °C 29.8in /  1010.3hPa SE 2.4mph /  3.9km/h 5mph /  8km/h 53.5% 0in /  0.0mm
19:34 56.8 °F /  13.8 °C 40.6 °F /  4.8 °C 29.8in /  1010.3hPa SE 2.7mph /  4.4km/h 5.8mph /  9.3km/h 54.5% 0in /  0.0mm
19:39 56.5 °F /  13.6 °C 40.6 °F /  4.8 °C 29.8in /  1010.5hPa SE 2.9mph /  4.7km/h 6mph /  9.7km/h 55.3% 0in /  0.0mm
19:44 56.1 °F /  13.4 °C 40.6 °F /  4.8 °C 29.8in /  1010.5hPa SE 2.9mph /  4.7km/h 5mph /  8km/h 56% 0in /  0.0mm
19:49 55.9 °F /  13.3 °C 40.5 °F /  4.7 °C 29.8in /  1010.5hPa SE 2.9mph /  4.7km/h 5mph /  8km/h 56% 0in /  0.0mm
19:54 55.9 °F /  13.3 °C 40.5 °F /  4.7 °C 29.8in /  1010.5hPa SE 2.9mph /  4.7km/h 5mph /  8km/h 56% 0in /  0.0mm
19:59 55.9 °F /  13.3 °C 40.5 °F /  4.7 °C 29.8in /  1010.4hPa SE 2.9mph /  4.7km/h 4mph /  6.4km/h 56% 0in /  0.0mm
20:04 55.8 °F /  13.2 °C 40.8 °F /  4.9 °C 29.8in /  1010.4hPa ESE 2.1mph /  3.4km/h 6.4mph /  10.3km/h 57% 0in /  0.0mm
20:09 55.6 °F /  13.1 °C 40.6 °F /  4.8 °C 29.8in /  1010.4hPa ESE 1.8mph /  2.9km/h 7mph /  11.3km/h 57.2% 0in /  0.0mm
20:14 54.9 °F /  12.7 °C 40.5 °F /  4.7 °C 29.8in /  1010.2hPa Este 3mph /  4.8km/h 6mph /  9.7km/h 58.2% 0in /  0.0mm
20:19 54.5 °F /  12.5 °C 40.5 °F /  4.7 °C 29.8in /  1010.2hPa SE 3.6mph /  5.8km/h 6.2mph /  10km/h 59% 0in /  0.0mm
20:24 54.1 °F /  12.3 °C 40.3 °F /  4.6 °C 29.8in /  1010.3hPa Sur 3.6mph /  5.8km/h 6mph /  9.7km/h 59.4% 0in /  0.0mm
20:29 54.1 °F /  12.3 °C 40.5 °F /  4.7 °C 29.8in /  1010.3hPa Sur 3.6mph /  5.8km/h 5.9mph /  9.5km/h 59.6% 0in /  0.0mm
20:34 54.1 °F /  12.3 °C 40.3 °F /  4.6 °C 29.8in /  1010.3hPa SO 3.9mph /  6.2km/h 6mph /  9.7km/h 59% 0in /  0.0mm
20:39 54.5 °F /  12.5 °C 40.5 °F /  4.7 °C 29.8in /  1010.3hPa SO 4mph /  6.5km/h 6mph /  9.7km/h 59% 0in /  0.0mm
20:44 54.7 °F /  12.6 °C 40.6 °F /  4.8 °C 29.8in /  1010.0hPa SO 2.5mph /  4.1km/h 3mph /  4.8km/h 59% 0in /  0.0mm
20:49 54.5 °F /  12.5 °C 40.5 °F /  4.7 °C 29.8in /  1010.0hPa SSE 1.8mph /  2.9km/h 4.6mph /  7.4km/h 59% 0in /  0.0mm
20:54 54.1 °F /  12.3 °C 40.6 °F /  4.8 °C 29.8in /  1010.0hPa ESE 1.9mph /  3.1km/h 5mph /  8km/h 59.9% 0in /  0.0mm
20:59 54 °F /  12.2 °C 40.5 °F /  4.7 °C 29.8in /  1009.8hPa ESE 2mph /  3.2km/h 5mph /  8km/h 60% 0in /  0.0mm
21:04 53.8 °F /  12.1 °C 40.6 °F /  4.8 °C 29.8in /  1009.8hPa ESE 2mph /  3.2km/h 3mph /  4.8km/h 61% 0in /  0.0mm
21:09 53.8 °F /  12.1 °C 40.6 °F /  4.8 °C 29.8in /  1009.8hPa ESE 2mph /  3.2km/h 3mph /  4.8km/h 61% 0in /  0.0mm
21:14 53.6 °F /  12 °C 40.6 °F /  4.8 °C 29.8in /  1009.8hPa ESE 0.7mph /  1.1km/h 3mph /  4.8km/h 61.2% 0in /  0.0mm
21:19 53.4 °F /  11.9 °C 40.6 °F /  4.8 °C 29.8in /  1009.8hPa Calm   2.3mph /  3.7km/h 61.8% 0in /  0.0mm
21:24 53.2 °F /  11.8 °C 40.6 °F /  4.8 °C 29.8in /  1009.8hPa Calm   3.5mph /  5.6km/h 62% 0in /  0.0mm
21:29 53.2 °F /  11.8 °C 40.5 °F /  4.7 °C 29.8in /  1009.7hPa Calm   3.5mph /  5.6km/h 62% 0in /  0.0mm
21:34 53.2 °F /  11.8 °C 40.6 °F /  4.8 °C 29.8in /  1009.7hPa ESE 1.2mph /  2km/h 3.6mph /  5.8km/h 62.4% 0in /  0.0mm
21:39 53.1 °F /  11.7 °C 40.8 °F /  4.9 °C 29.8in /  1009.8hPa SO 2mph /  3.2km/h 4.6mph /  7.4km/h 63% 0in /  0.0mm
21:44 52.9 °F /  11.6 °C 41 °F /  5 °C 29.8in /  1009.8hPa Oeste 2mph /  3.2km/h 5mph /  8km/h 63.8% 0in /  0.0mm
21:49 52.9 °F /  11.6 °C 41 °F /  5 °C 29.8in /  1009.8hPa ONO 2mph /  3.2km/h 5.2mph /  8.4km/h 64% 0in /  0.0mm
21:54 52.9 °F /  11.6 °C 41 °F /  5 °C 29.8in /  1009.8hPa ONO 2.3mph /  3.7km/h 5mph /  8km/h 64% 0in /  0.0mm
21:59 52.9 °F /  11.6 °C 41 °F /  5 °C 29.8in /  1009.8hPa ONO 2.4mph /  3.9km/h 5mph /  8km/h 64% 0in /  0.0mm
22:04 52.9 °F /  11.6 °C 41.4 °F /  5.2 °C 29.8in /  1009.8hPa ONO 0.7mph /  1.2km/h 2.3mph /  3.7km/h 64.9% 0in /  0.0mm
22:09 52.9 °F /  11.6 °C 41.4 °F /  5.2 °C 29.8in /  1009.8hPa Calm   2.4mph /  3.9km/h 65% 0in /  0.0mm
22:14 52.9 °F /  11.6 °C 41.4 °F /  5.2 °C 29.8in /  1009.6hPa ONO 0.9mph /  1.5km/h 4mph /  6.4km/h 65% 0in /  0.0mm
22:19 52.9 °F /  11.6 °C 41.4 °F /  5.2 °C 29.8in /  1009.6hPa SSE 1.4mph /  2.2km/h 8.1mph /  13km/h 65% 0in /  0.0mm
22:24 52.9 °F /  11.6 °C 41.5 °F /  5.3 °C 29.8in /  1009.6hPa Sur 2.9mph /  4.6km/h 8mph /  12.9km/h 65.4% 0in /  0.0mm
22:29 52.7 °F /  11.5 °C 41.5 °F /  5.3 °C 29.8in /  1009.6hPa SSE 3.6mph /  5.8km/h 8.5mph /  13.7km/h 66% 0in /  0.0mm
22:34 52.5 °F /  11.4 °C 41.5 °F /  5.3 °C 29.8in /  1009.6hPa SSE 4.3mph /  6.9km/h 9.2mph /  14.8km/h 66% 0in /  0.0mm
22:39 52.7 °F /  11.5 °C 41.7 °F /  5.4 °C 29.8in /  1009.6hPa Sur 4.7mph /  7.6km/h 9.2mph /  14.8km/h 66% 0in /  0.0mm
22:44 52.9 °F /  11.6 °C 41.5 °F /  5.3 °C 29.8in /  1009.3hPa Sur 5.5mph /  8.9km/h 9mph /  14.5km/h 65.2% 0in /  0.0mm
22:49 53.1 °F /  11.7 °C 41.5 °F /  5.3 °C 29.8in /  1009.3hPa SSO 5.9mph /  9.5km/h 7mph /  11.3km/h 65% 0in /  0.0mm
22:54 53.2 °F /  11.8 °C 41.4 °F /  5.2 °C 29.8in /  1009.3hPa OSO 4.7mph /  7.5km/h 6mph /  9.7km/h 64.2% 0in /  0.0mm
22:59 53.4 °F /  11.9 °C 41.5 °F /  5.3 °C 29.8in /  1009.1hPa OSO 4mph /  6.5km/h 5.8mph /  9.3km/h 64% 0in /  0.0mm
23:04 53.4 °F /  11.9 °C 41.4 °F /  5.2 °C 29.8in /  1009.1hPa Oeste 3.4mph /  5.5km/h 6mph /  9.7km/h 63.8% 0in /  0.0mm
23:09 53.4 °F /  11.9 °C 41.5 °F /  5.3 °C 29.8in /  1009.1hPa Oeste 3.1mph /  5km/h 5mph /  8km/h 63.9% 0in /  0.0mm
23:14 53.4 °F /  11.9 °C 41.5 °F /  5.3 °C 29.8in /  1008.6hPa Oeste 1mph /  1.6km/h 4.3mph /  6.9km/h 64% 0in /  0.0mm
23:19 53.4 °F /  11.9 °C 41.5 °F /  5.3 °C 29.8in /  1008.6hPa Calm   5mph /  8km/h 64% 0in /  0.0mm
23:24 53.2 °F /  11.8 °C 41.7 °F /  5.4 °C 29.8in /  1008.6hPa ESE 1.6mph /  2.5km/h 5mph /  8km/h 64.9% 0in /  0.0mm
23:29 53.1 °F /  11.7 °C 42.1 °F /  5.6 °C 29.8in /  1008.5hPa ESE 2.4mph /  3.9km/h 5mph /  8km/h 66.1% 0in /  0.0mm
23:34 52.9 °F /  11.6 °C 42.3 °F /  5.7 °C 29.8in /  1008.5hPa ESE 2mph /  3.2km/h 4mph /  6.4km/h 67% 0in /  0.0mm
23:39 52.9 °F /  11.6 °C 42.6 °F /  5.9 °C 29.8in /  1008.5hPa ESE 1.8mph /  2.9km/h   67.9% 0in /  0.0mm
23:44 52.9 °F /  11.6 °C 42.6 °F /  5.9 °C 29.8in /  1008.5hPa ESE 0.6mph /  1km/h 2.9mph /  4.7km/h 68% 0in /  0.0mm
23:49 52.9 °F /  11.6 °C 42.8 °F /  6 °C 29.8in /  1008.5hPa Calm   4.3mph /  6.9km/h 68.5% 0in /  0.0mm
23:54 52.9 °F /  11.6 °C 43.2 °F /  6.2 °C 29.8in /  1008.5hPa NNO 1.4mph /  2.2km/h 5mph /  8km/h 69.4% 0in /  0.0mm
23:59 52.5 °F /  11.4 °C 42.8 °F /  6 °C 29.8in /  1008.3hPa NO 2mph /  3.2km/h 5mph /  8km/h 69.4% 0in /  0.0mm
Murcia-Puente Tocinos, España
Compliments of Weather Underground - 3.5 mb

La estación de MeteoMurcia.com, publica sus datos en los siguientes proyectos:

Weather Underground PWS IMURCIAP2 Meteoclimatic www.awekas.at

W3Counter
Web Analytics